Woodward, OK (73801)

7:38 PM CDT on September 01, 2015 (GMT -0500)
West Woodward | | Change Station
CLOSE
Current Station
Airport
Location: Woodward,
Elevation: 2188 ft
Nearby Weather Stations

Elev 2188 ft 36.44 °N, 99.52 °W | Updated 23 minutes ago

Clear
Clear
90 °F
Feels Like 90 °F
N
13
Wind Variable Wind from South
Gusts 18 mph

Today
High -- | Low -- °F
--% Chance of Precip.
Yesterday
High -- | Low -- °F
Precip. -- in
7:08 AM 8:05 PM
Waning Gibbous, 85% visible
Pressure 29.99 in
Visibility 10.0 miles
Clouds Clear
Dew Point 52 °F
Humidity 27%
Rainfall 0.00 in
Snow Depth Not available.
UV 0 out of 12
Pollen 11.60 out of 12
Air Quality Not available.
Flu Activity Not available.
METAR KWWR 020015Z AUTO 17011G16KT 10SM CLR 32/11 A2999 RMK AO2
Pressure 29.99 in
Visibility 10.0 miles
Clouds Clear
Dew Point 52 °F
Humidity 27%
Rainfall 0.00 in
Snow Depth Not available.
UV 0 out of 12
Pollen 11.60 out of 12
Air Quality Not available.
Flu Activity Not available.
METAR KWWR 020015Z AUTO 17011G16KT 10SM CLR 32/11 A2999 RMK AO2

10-Day Weather Forecast

×

Almanac

Astronomy

Sep. 01, 2015 Rise Set
Actual Time
Civil Twilight
Nautical Twilight
Astronomical Twilight
Moon
Length of Visible Light
Length of Day
Tomorrow will be .
, % of the Moon is Illuminated

Today's Extremes

State Highs State Lows

Community

WunderPhotos

Upload Photos

1,851,657 photos uploaded!

WunderBlogs® & News

Nearby

Air Quality

  Air Quality AQ Index Pollutant
Not available.

Snow Depth

Station Depth Elevation

Earthquake Activity

City Distance Mag. Time & Date
Minimum magnitude displayed is 2.5.

Coastal Water Temperatures

Place Temperature

Stations

Nearby Weather Stations

Station Location Temp. Windchill Dew Point Humidity Wind Precip. Elev Updated Type